Newington, United Kingdom
Current Conditions -  °F | °C
As of 2:20 PM on Friday 19 Dec 2014 (Local Time) from EGMC Reporting Station
Few Clouds Few Clouds  
Wind Chill: 42°   Ceiling: Unl
Heat Index: 48°   Visibility: 6mi
Dew Point: 34°   Wind: 17mph
Humidity: 57%   Direction: 270°W
Pressure: 30"   Gusts: NA
Location:  51.35°N, 0.67°E
Report Text: EGMC 191420Z 27015KT 9999 FEW025 09/01 Q1016
Loading
Personal Weather Stations






























Interactive Weather Map New forecast layout! Learn more

10-Day Weather Forecast

Advertisements
Track Severe Weather on mobile